createdAt,value
2018-05-10T00:04:34.723Z,9.13
2018-05-10T00:09:37.360Z,8.90
2018-05-10T00:14:39.871Z,10.33
2018-05-10T00:19:42.352Z,8.47
2018-05-10T00:24:44.837Z,10.13
2018-05-10T00:29:47.311Z,10.53
2018-05-10T00:34:49.775Z,9.13
2018-05-10T00:39:52.255Z,10.97
2018-05-10T00:44:54.713Z,12.47
2018-05-10T00:49:57.306Z,9.27
2018-05-10T00:54:59.854Z,9.60
2018-05-10T01:00:02.485Z,10.83
2018-05-10T01:05:05.114Z,9.33
2018-05-10T01:10:08.424Z,8.40
2018-05-10T01:15:10.906Z,9.20
2018-05-10T01:20:13.384Z,8.83
2018-05-10T01:25:15.875Z,9.03
2018-05-10T01:30:18.351Z,11.20
2018-05-10T01:35:32.653Z,10.40
2018-05-10T01:40:35.174Z,10.50
2018-05-10T01:45:37.768Z,10.20
2018-05-10T01:50:40.341Z,14.30
2018-05-10T01:55:42.873Z,9.90
2018-05-10T02:00:45.366Z,9.83
2018-05-10T02:05:47.833Z,9.67
2018-05-10T02:10:50.406Z,10.00
2018-05-10T02:15:52.874Z,14.00
2018-05-10T02:20:55.385Z,14.83
2018-05-10T02:25:58.053Z,9.53
2018-05-10T02:31:00.602Z,11.80
2018-05-10T02:36:03.182Z,9.70
2018-05-10T02:41:05.761Z,11.30
2018-05-10T02:46:08.272Z,10.43
2018-05-10T02:51:10.779Z,9.87
2018-05-10T02:56:13.293Z,8.60
2018-05-10T03:01:15.808Z,12.07
2018-05-10T03:06:18.301Z,9.70
2018-05-10T03:11:20.762Z,9.87
2018-05-10T03:16:23.231Z,9.20
2018-05-10T03:21:25.687Z,12.83
2018-05-10T03:26:28.173Z,10.53
2018-05-10T03:31:30.701Z,11.00
2018-05-10T03:36:33.353Z,11.07
2018-05-10T03:41:36.222Z,9.10
2018-05-10T03:46:38.770Z,12.03
2018-05-10T03:51:41.256Z,13.10
2018-05-10T03:56:44.704Z,9.60
2018-05-10T04:01:47.151Z,9.83
2018-05-10T04:07:01.360Z,9.70
2018-05-10T04:12:04.037Z,10.07
2018-05-10T04:17:07.234Z,10.03
2018-05-10T04:22:09.698Z,9.60
2018-05-10T04:27:12.213Z,17.57
2018-05-10T04:32:14.703Z,11.90
2018-05-10T04:37:17.209Z,12.60
2018-05-10T04:42:19.702Z,10.73
2018-05-10T04:47:22.206Z,10.43
2018-05-10T04:52:24.714Z,10.27
2018-05-10T04:57:27.215Z,13.83
2018-05-10T05:02:29.738Z,7.30
2018-05-10T05:07:32.323Z,9.13
2018-05-10T05:12:34.853Z,10.20
2018-05-10T05:17:37.360Z,10.37
2018-05-10T05:22:39.840Z,11.87
2018-05-10T05:27:42.349Z,11.57
2018-05-10T05:32:44.855Z,14.07
2018-05-10T05:37:47.467Z,12.23
2018-05-10T05:42:49.923Z,9.70
2018-05-10T05:47:52.454Z,10.03
2018-05-10T05:52:54.941Z,12.27
2018-05-10T05:57:57.428Z,9.40
2018-05-10T06:03:00.018Z,9.97
2018-05-10T06:08:02.694Z,7.53
2018-05-10T06:13:05.207Z,10.83
2018-05-10T06:18:07.708Z,14.07
2018-05-10T06:23:10.220Z,8.27
2018-05-10T06:28:12.702Z,9.63
2018-05-10T06:33:15.167Z,12.50
2018-05-10T06:38:17.665Z,11.43
2018-05-10T06:43:20.389Z,13.57
2018-05-10T06:48:22.885Z,12.13
2018-05-10T06:53:25.344Z,11.75
2018-05-10T06:58:28.780Z,10.73
2018-05-10T07:03:31.355Z,12.88
2018-05-10T07:08:33.962Z,9.83
2018-05-10T07:13:36.617Z,11.97
2018-05-10T07:18:39.101Z,10.80
2018-05-10T07:23:41.618Z,9.37
2018-05-10T07:28:44.133Z,12.83
2018-05-10T07:33:46.616Z,11.57
2018-05-10T07:38:50.523Z,12.37
2018-05-10T07:43:53.016Z,9.38
2018-05-10T07:48:55.496Z,9.98
2018-05-10T07:53:57.972Z,9.93
2018-05-10T07:59:00.585Z,9.85
2018-05-10T08:06:53.442Z,10.95
2018-05-10T08:14:18.626Z,12.82
2018-05-10T08:19:21.735Z,13.90
2018-05-10T08:24:24.272Z,13.43
2018-05-10T08:29:31.016Z,10.98
2018-05-10T08:34:33.532Z,11.95
2018-05-10T08:39:36.040Z,11.05
2018-05-10T08:44:38.524Z,12.82
2018-05-10T08:49:40.991Z,8.73
2018-05-10T08:54:43.467Z,9.93
2018-05-10T08:59:45.974Z,9.50
2018-05-10T09:04:48.469Z,6.60
2018-05-10T09:09:50.963Z,10.70
2018-05-10T09:14:53.481Z,12.90
2018-05-10T09:19:55.986Z,9.20
2018-05-10T09:24:59.448Z,13.20
2018-05-10T09:30:01.939Z,12.68
2018-05-10T09:35:04.441Z,10.60
2018-05-10T09:40:07.085Z,12.40
2018-05-10T09:45:09.549Z,9.70
2018-05-10T09:50:12.128Z,13.50
2018-05-10T09:55:14.606Z,11.48
2018-05-10T10:00:31.575Z,11.18
2018-05-10T10:05:34.066Z,9.27
2018-05-10T10:10:36.568Z,9.80
2018-05-10T10:15:39.110Z,7.85
2018-05-10T10:20:41.546Z,11.43
2018-05-10T10:25:44.015Z,8.20
2018-05-10T10:30:46.512Z,9.95
2018-05-10T10:35:49.013Z,10.18
2018-05-10T10:40:51.515Z,10.98
2018-05-10T10:45:53.981Z,10.55
2018-05-10T10:50:56.440Z,9.02
2018-05-10T10:55:58.922Z,10.50
2018-05-10T11:01:01.410Z,10.82
2018-05-10T11:06:03.917Z,12.02
2018-05-10T11:11:06.418Z,11.88
2018-05-10T11:16:08.914Z,10.35
2018-05-10T11:21:11.413Z,12.77
2018-05-10T11:26:14.870Z,9.27
2018-05-10T11:31:18.312Z,14.37
2018-05-10T11:36:20.804Z,15.77
2018-05-10T11:41:23.317Z,8.57
2018-05-10T11:46:25.836Z,12.30
2018-05-10T11:51:28.425Z,16.23
2018-05-10T11:56:30.957Z,12.67
2018-05-10T12:01:33.480Z,12.53
2018-05-10T12:06:35.972Z,14.05
2018-05-10T12:11:38.546Z,9.67
2018-05-10T12:16:41.013Z,12.07
2018-05-10T12:21:43.502Z,11.57
2018-05-10T12:26:46.013Z,11.13
2018-05-10T12:31:48.542Z,14.17
2018-05-10T12:36:51.057Z,10.17
2018-05-10T12:41:53.592Z,13.47
2018-05-10T12:46:56.085Z,13.93
2018-05-10T12:51:58.615Z,10.53
2018-05-10T12:57:01.126Z,10.67
2018-05-10T13:02:03.601Z,10.57
2018-05-10T13:07:06.075Z,13.40
2018-05-10T13:12:08.548Z,15.10
2018-05-10T13:17:11.093Z,10.13
2018-05-10T13:22:13.589Z,10.57
2018-05-10T13:27:16.127Z,6.23
2018-05-10T13:32:18.586Z,9.17
2018-05-10T13:37:21.092Z,8.20
2018-05-10T13:42:23.699Z,9.50
2018-05-10T13:47:26.299Z,9.60
2018-05-10T13:52:28.671Z,10.80
2018-05-10T13:57:31.191Z,10.77
2018-05-10T14:02:33.680Z,11.93
2018-05-10T14:07:36.145Z,9.33
2018-05-10T14:12:38.611Z,9.03
2018-05-10T14:17:41.185Z,12.50
2018-05-10T14:22:43.748Z,9.17
2018-05-10T14:27:46.228Z,12.10
2018-05-10T14:32:48.780Z,6.03
2018-05-10T14:37:51.286Z,9.13
2018-05-10T14:42:53.767Z,10.00
2018-05-10T14:47:56.250Z,10.23
2018-05-10T14:52:58.804Z,11.73
2018-05-10T14:58:01.314Z,11.30
2018-05-10T15:03:03.787Z,10.03
2018-05-10T15:08:06.278Z,10.80
2018-05-10T15:13:08.812Z,10.73
2018-05-10T15:18:11.288Z,9.03
2018-05-10T15:23:14.370Z,9.37
2018-05-10T15:28:17.158Z,9.70
2018-05-10T15:33:19.660Z,10.53
2018-05-10T15:38:22.133Z,7.80
2018-05-10T15:43:24.668Z,9.70
2018-05-10T15:48:27.185Z,8.93
2018-05-10T15:53:29.693Z,8.57
2018-05-10T15:58:32.191Z,6.40
2018-05-10T16:03:34.736Z,13.93
2018-05-10T16:08:37.312Z,8.53
2018-05-10T16:13:39.893Z,8.47
2018-05-10T16:18:42.445Z,13.00
2018-05-10T16:23:45.058Z,9.00
2018-05-10T16:28:55.308Z,10.13
2018-05-10T16:33:58.326Z,10.97
2018-05-10T16:39:00.860Z,11.53
2018-05-10T16:44:03.568Z,10.37
2018-05-10T16:49:06.077Z,11.03
2018-05-10T16:54:08.543Z,10.63
2018-05-10T16:59:11.034Z,20.03
2018-05-10T17:04:13.519Z,11.33
2018-05-10T17:09:16.011Z,8.37
2018-05-10T17:19:48.047Z,11.07
2018-05-10T17:25:01.782Z,11.07
2018-05-10T17:30:06.288Z,10.53
2018-05-10T17:35:09.939Z,10.83
2018-05-10T17:40:15.602Z,9.70
2018-05-10T17:45:18.911Z,13.27
2018-05-10T17:50:21.986Z,11.93
2018-05-10T17:55:25.093Z,10.40
2018-05-10T18:00:28.520Z,22.70
2018-05-10T18:05:51.328Z,17.87
2018-05-10T18:10:56.873Z,21.03
2018-05-10T18:15:59.444Z,20.63
2018-05-10T18:21:01.970Z,20.60
2018-05-10T18:26:04.503Z,17.47
2018-05-10T18:31:07.108Z,17.60
2018-05-10T18:36:10.589Z,17.10
2018-05-10T18:41:13.101Z,19.63
2018-05-10T18:46:15.586Z,19.90
2018-05-10T18:51:18.211Z,21.10
2018-05-10T18:56:21.303Z,21.57
2018-05-10T19:01:23.780Z,18.33
2018-05-10T19:06:28.204Z,20.43
2018-05-10T19:11:33.068Z,14.87
2018-05-10T19:16:37.020Z,12.27
2018-05-10T19:21:40.821Z,10.07
2018-05-10T19:26:55.132Z,7.57
2018-05-10T19:31:57.948Z,7.33
2018-05-10T19:37:00.685Z,6.93
2018-05-10T19:42:03.506Z,7.03
2018-05-10T19:47:06.261Z,6.93
2018-05-10T19:52:09.061Z,6.83
2018-05-10T19:57:11.585Z,7.83
2018-05-10T20:02:14.087Z,7.30
2018-05-10T20:07:16.576Z,7.47
2018-05-10T20:12:19.122Z,8.23
2018-05-10T20:17:21.527Z,8.63
2018-05-10T20:22:24.008Z,9.10
2018-05-10T20:27:30.743Z,9.60
2018-05-10T20:32:34.261Z,11.13
2018-05-10T20:37:38.161Z,13.13
2018-05-10T20:42:41.035Z,14.67
2018-05-10T20:47:43.530Z,15.40
2018-05-10T20:52:46.771Z,15.97
2018-05-10T20:57:49.256Z,16.17
2018-05-10T21:02:51.750Z,15.07
2018-05-10T21:07:54.338Z,15.10
2018-05-10T21:12:56.852Z,13.77
2018-05-10T21:17:59.372Z,13.17
2018-05-10T21:23:02.648Z,12.27
2018-05-10T21:28:05.247Z,11.97
2018-05-10T21:33:07.742Z,13.67
2018-05-10T21:38:10.227Z,13.50
2018-05-10T21:43:12.697Z,15.83
2018-05-10T21:48:15.164Z,16.87
2018-05-10T21:53:17.662Z,19.70
2018-05-10T21:58:20.195Z,21.10
2018-05-10T22:03:22.774Z,21.83
2018-05-10T22:08:25.253Z,23.23
2018-05-10T22:13:27.768Z,22.40
2018-05-10T22:18:30.257Z,24.40
2018-05-10T22:23:32.791Z,25.80
2018-05-10T22:28:35.396Z,26.43
2018-05-10T22:33:37.882Z,24.77
2018-05-10T22:38:40.410Z,24.33
2018-05-10T22:43:42.961Z,25.00
2018-05-10T22:48:45.444Z,24.93
2018-05-10T22:53:47.937Z,23.90
2018-05-10T22:58:50.400Z,21.60
2018-05-10T23:03:52.875Z,23.63
2018-05-10T23:08:55.447Z,21.73
2018-05-10T23:13:57.927Z,21.63
2018-05-10T23:19:00.399Z,20.80
2018-05-10T23:24:02.958Z,19.43
2018-05-10T23:29:05.456Z,20.50
2018-05-10T23:34:07.953Z,16.63
2018-05-10T23:39:10.459Z,19.60
2018-05-10T23:44:12.956Z,16.53
2018-05-10T23:49:15.581Z,13.07
2018-05-10T23:54:18.054Z,13.20
2018-05-10T23:59:20.546Z,16.73
